Time;durP1;ratioP1;P1;durP2;ratioP2;P2;SDS_P1;SDS_P2;PMS_P1;PMS_P2;Temp;Humidity;BMP_temperature;BMP_pressure;BME280_temperature;BME280_humidity;BME280_pressure;Samples;Min_cycle;Max_cycle;Signal;HPM_P1;HPM_P2
2022/08/03 00:02:02;;;;;;;;;;;;;;;;;;5100058;28;19928;-84
2022/08/03 00:04:29;;;;;;;;;;;;;;;;;;5099720;28;19924;-85
2022/08/03 00:06:55;;;;;;;;;;;;;;;;;;5099193;28;20011;-86
2022/08/03 00:09:22;;;;;;;;;;;;;;;;;;5099302;28;19971;-85
2022/08/03 00:11:48;;;;;;;;;;;;;;;;;;5099605;28;20015;-85
2022/08/03 00:14:14;;;;;;;;;;;;;;;;;;5100203;28;19978;-83
2022/08/03 00:16:42;;;;;;;;;;;;;;;;;;5100905;28;20400;-85
2022/08/03 00:19:09;;;;;;;;;;;;;;;;;;5110594;28;19967;-86
2022/08/03 00:21:35;;;;;;;;;;;;;;;;;;5121556;28;19911;-86
2022/08/03 00:24:02;;;;;;;;;;;;;;;;;;5121093;28;19912;-86
2022/08/03 00:26:28;;;;;;;;;;;;;;;;;;5121083;28;19927;-87
2022/08/03 00:28:54;;;;;;;;;;;;;;;;;;5114824;28;19924;-86
2022/08/03 00:31:21;;;;;;;;;;;;;;;;;;5102823;28;20007;-85
2022/08/03 00:33:49;;;;;;;;;;;;;;;;;;5101693;28;20011;-86
2022/08/03 00:36:15;;;;;;;;;;;;;;;;;;5100795;28;20548;-86
2022/08/03 00:38:42;;;;;;;;;;;;;;;;;;5100085;28;19963;-85
2022/08/03 00:41:08;;;;;;;;;;;;;;;;;;5099663;28;19928;-85
2022/08/03 00:43:35;;;;;;;;;;;;;;;;;;5100342;28;20410;-86
2022/08/03 00:46:01;;;;;;;;;;;;;;;;;;5099444;28;20045;-86
2022/08/03 00:48:27;;;;;;;;;;;;;;;;;;5099819;28;20027;-86
2022/08/03 00:50:55;;;;;;;;;;;;;;;;;;5098397;28;19930;-87
2022/08/03 00:53:22;;;;;;;;;;;;;;;;;;5078464;28;20526;-87
2022/08/03 00:55:48;;;;;;;;;;;;;;;;;;5079879;28;19924;-86
2022/08/03 00:58:15;;;;;;;;;;;;;;;;;;5099633;28;19931;-87
2022/08/03 01:00:42;;;;;;;;;;;;;;;;;;5099880;28;19924;-86
2022/08/03 01:03:09;;;;;;;;;;;;;;;;;;5099534;28;20473;-86
2022/08/03 01:05:39;;;;;;;;;;;;;;;;;;5099975;28;19967;-86
2022/08/03 01:08:09;;;;;;;;;;;;;;;;;;5099216;28;19964;-86
2022/08/03 01:10:39;;;;;;;;;;;;;;;;;;5099609;28;20353;-86
2022/08/03 01:13:16;;;;;;;;;;;;;;;;;;5099174;28;19982;-86
2022/08/03 01:15:45;;;;;;;;;;;;;;;;;;5100709;28;19974;-86
2022/08/03 01:18:14;;;;;;;;;;;;;;;;;;5101112;28;19924;-86
2022/08/03 01:20:43;;;;;;;;;;;;;;;;;;5101170;28;19974;-86
2022/08/03 01:23:27;;;;;;;;;;;;;;;;;;5101118;28;20336;-87
2022/08/03 01:26:03;;;;;;;;;;;;;;;;;;5080788;28;19968;-86
2022/08/03 01:28:37;;;;;;;;;;;;;;;;;;5081666;28;19959;-86
2022/08/03 01:31:06;;;;;;;;;;;;;;;;;;5103558;28;19915;-86
2022/08/03 01:33:36;;;;;;;;;;;;;;;;;;5118723;28;19918;-86
2022/08/03 01:36:04;;;;;;;;;;;;;;;;;;5117642;28;19912;-86
2022/08/03 01:38:32;;;;;;;;;;;;;;;;;;5116746;28;19931;-85
2022/08/03 01:41:02;;;;;;;;;;;;;;;;;;5115788;28;19922;-85
2022/08/03 01:43:30;;;;;;;;;;;;;;;;;;5134188;22;21195;-65
2022/08/03 01:45:57;;;;;;;;;;;;;;;;;;5073282;28;19924;-65
2022/08/03 01:48:26;;;;;;;;;;;;;;;;;;5053573;28;20068;-65
2022/08/03 01:50:54;;;;;;;;;;;;;;;;;;5061056;28;20332;-65
2022/08/03 01:53:22;;;;;;;;;;;;;;;;;;5073078;28;19928;-65
2022/08/03 01:55:52;;;;;;;;;;;;;;;;;;5073395;28;19932;-65
2022/08/03 01:58:20;;;;;;;;;;;;;;;;;;5073392;28;19929;-65
2022/08/03 02:00:47;;;;;;;;;;;;;;;;;;5073055;28;19925;-65
2022/08/03 02:03:15;;;;;;;;;;;;;;;;;;5072739;28;19947;-64
2022/08/03 02:05:43;;;;;;;;;;;;;;;;;;5073285;28;19924;-65
2022/08/03 02:08:12;;;;;;;;;;;;;;;;;;5072575;28;20416;-65
2022/08/03 02:10:40;;;;;;;;;;;;;;;;;;5072861;28;19924;-64
2022/08/03 02:13:08;;;;;;;;;;;;;;;;;;5072690;28;20388;-64
2022/08/03 02:15:36;;;;;;;;;;;;;;;;;;5073390;28;19991;-64
2022/08/03 02:18:04;;;;;;;;;;;;;;;;;;5073208;28;20814;-65
2022/08/03 02:20:32;;;;;;;;;;;;;;;;;;5073242;28;19932;-65
2022/08/03 02:23:00;;;;;;;;;;;;;;;;;;5072582;28;20442;-64
2022/08/03 02:25:27;;;;;;;;;;;;;;;;;;5073097;28;20320;-64
2022/08/03 02:27:56;;;;;;;;;;;;;;;;;;5073177;28;20237;-64
2022/08/03 02:30:27;;;;;;;;;;;;;;;;;;5052765;28;19929;-65
2022/08/03 02:32:55;;;;;;;;;;;;;;;;;;5052548;28;19936;-65
2022/08/03 02:35:23;;;;;;;;;;;;;;;;;;5072006;28;19924;-65
2022/08/03 02:37:51;;;;;;;;;;;;;;;;;;5073034;28;19932;-65
2022/08/03 02:40:20;;;;;;;;;;;;;;;;;;5072721;28;20328;-64
2022/08/03 02:42:47;;;;;;;;;;;;;;;;;;5072599;28;19932;-65
2022/08/03 02:45:14;;;;;;;;;;;;;;;;;;5072555;28;20398;-65
2022/08/03 02:47:44;;;;;;;;;;;;;;;;;;5072701;28;19931;-65
2022/08/03 02:50:11;;;;;;;;;;;;;;;;;;5072870;28;19925;-65
2022/08/03 02:52:38;;;;;;;;;;;;;;;;;;5072505;28;19925;-64
2022/08/03 02:55:07;;;;;;;;;;;;;;;;;;5072023;28;19925;-65
2022/08/03 02:57:36;;;;;;;;;;;;;;;;;;5072471;28;19928;-65
2022/08/03 03:00:03;;;;;;;;;;;;;;;;;;5072159;28;19925;-65
2022/08/03 03:02:29;;;;;;;;;;;;;;;;;;5072491;28;19924;-64
2022/08/03 03:04:56;;;;;;;;;;;;;;;;;;5072152;28;20370;-64
2022/08/03 03:07:23;;;;;;;;;;;;;;;;;;5072563;28;20027;-64
2022/08/03 03:09:50;;;;;;;;;;;;;;;;;;5072103;28;19932;-65
2022/08/03 03:12:17;;;;;;;;;;;;;;;;;;5072443;28;19924;-64
2022/08/03 03:14:45;;;;;;;;;;;;;;;;;;5069229;28;19926;-65
2022/08/03 03:17:12;;;;;;;;;;;;;;;;;;5069247;28;19986;-65
2022/08/03 03:19:39;;;;;;;;;;;;;;;;;;5070958;28;19929;-64
2022/08/03 03:22:05;;;;;;;;;;;;;;;;;;5073376;28;19924;-65
2022/08/03 03:24:32;;;;;;;;;;;;;;;;;;5072920;28;19924;-64
2022/08/03 03:26:59;;;;;;;;;;;;;;;;;;5073499;28;20370;-65
2022/08/03 03:29:26;;;;;;;;;;;;;;;;;;5072194;28;19924;-65
2022/08/03 03:31:54;;;;;;;;;;;;;;;;;;5072104;28;20397;-64
2022/08/03 03:34:20;;;;;;;;;;;;;;;;;;5072759;28;19924;-65
2022/08/03 03:36:47;;;;;;;;;;;;;;;;;;5072655;28;20331;-64
2022/08/03 03:39:14;;;;;;;;;;;;;;;;;;5072410;28;19924;-65
2022/08/03 03:41:40;;;;;;;;;;;;;;;;;;5071568;28;20355;-65
2022/08/03 03:44:07;;;;;;;;;;;;;;;;;;5071489;28;20233;-65
2022/08/03 03:46:34;;;;;;;;;;;;;;;;;;5071875;28;20281;-66
2022/08/03 03:49:01;;;;;;;;;;;;;;;;;;5072436;28;19928;-66
2022/08/03 03:51:28;;;;;;;;;;;;;;;;;;5071333;28;20369;-66
2022/08/03 03:53:56;;;;;;;;;;;;;;;;;;5071793;28;20009;-65
2022/08/03 03:56:22;;;;;;;;;;;;;;;;;;5071500;28;19948;-65
2022/08/03 03:58:49;;;;;;;;;;;;;;;;;;5071823;28;19924;-65
2022/08/03 04:01:16;;;;;;;;;;;;;;;;;;5071270;28;19936;-65
2022/08/03 04:03:42;;;;;;;;;;;;;;;;;;5071421;28;19932;-66
2022/08/03 04:11:40;;;;;;;;;;;;;;;;;;5071359;28;20444;-65
2022/08/03 04:14:09;;;;;;;;;;;;;;;;;;5071430;28;20344;-65
2022/08/03 04:16:37;;;;;;;;;;;;;;;;;;5071679;28;19929;-66
2022/08/03 04:19:05;;;;;;;;;;;;;;;;;;5070660;28;20286;-66
2022/08/03 04:21:35;;;;;;;;;;;;;;;;;;5071178;28;19971;-65
2022/08/03 04:24:03;;;;;;;;;;;;;;;;;;5071432;28;19932;-65
2022/08/03 04:26:31;;;;;;;;;;;;;;;;;;5071131;28;19929;-65
2022/08/03 04:28:58;;;;;;;;;;;;;;;;;;5070980;28;19935;-65
2022/08/03 04:31:26;;;;;;;;;;;;;;;;;;5070092;28;19928;-66
2022/08/03 04:33:53;;;;;;;;;;;;;;;;;;5070912;28;19975;-65
2022/08/03 04:36:21;;;;;;;;;;;;;;;;;;5070608;28;19924;-65
2022/08/03 04:38:54;;;;;;;;;;;;;;;;;;5070994;28;20389;-65
2022/08/03 04:41:21;;;;;;;;;;;;;;;;;;5070950;28;20443;-65
2022/08/03 04:43:49;;;;;;;;;;;;;;;;;;5071131;28;19979;-66
2022/08/03 04:46:16;;;;;;;;;;;;;;;;;;5071407;28;20278;-65
2022/08/03 04:48:43;;;;;;;;;;;;;;;;;;5071644;28;21135;-65
2022/08/03 04:51:11;;;;;;;;;;;;;;;;;;5070715;28;19924;-66
2022/08/03 04:53:38;;;;;;;;;;;;;;;;;;5069937;28;19943;-65
2022/08/03 04:56:06;;;;;;;;;;;;;;;;;;5070557;28;19936;-64
2022/08/03 04:58:33;;;;;;;;;;;;;;;;;;5070792;28;20297;-64
2022/08/03 05:01:00;;;;;;;;;;;;;;;;;;5070800;28;19947;-65
2022/08/03 05:03:26;;;;;;;;;;;;;;;;;;5070426;28;19931;-65
2022/08/03 05:05:53;;;;;;;;;;;;;;;;;;5070204;28;19933;-66
2022/08/03 05:08:20;;;;;;;;;;;;;;;;;;5070400;28;20023;-66
2022/08/03 05:10:47;;;;;;;;;;;;;;;;;;5070548;28;20011;-66
2022/08/03 05:13:15;;;;;;;;;;;;;;;;;;5069935;28;19924;-65
2022/08/03 05:15:42;;;;;;;;;;;;;;;;;;5069902;28;19924;-65
2022/08/03 05:18:08;;;;;;;;;;;;;;;;;;5070667;28;19932;-65
2022/08/03 05:20:35;;;;;;;;;;;;;;;;;;5069020;28;19933;-66
2022/08/03 05:23:02;;;;;;;;;;;;;;;;;;5070161;28;19932;-63
2022/08/03 05:25:29;;;;;;;;;;;;;;;;;;5073447;28;19979;-65
2022/08/03 05:27:55;;;;;;;;;;;;;;;;;;5074189;28;19929;-65
2022/08/03 05:30:23;;;;;;;;;;;;;;;;;;5073505;28;19924;-65
2022/08/03 05:32:50;;;;;;;;;;;;;;;;;;5073980;28;20022;-65
2022/08/03 05:35:17;;;;;;;;;;;;;;;;;;5073822;28;19932;-66
2022/08/03 05:37:43;;;;;;;;;;;;;;;;;;5073644;28;20301;-65
2022/08/03 05:40:11;;;;;;;;;;;;;;;;;;5072955;28;19925;-65
2022/08/03 05:42:37;;;;;;;;;;;;;;;;;;5072750;28;19978;-64
2022/08/03 05:45:11;;;;;;;;;;;;;;;;;;5073351;28;19932;-66
2022/08/03 05:47:39;;;;;;;;;;;;;;;;;;5073378;28;20014;-64
2022/08/03 05:50:06;;;;;;;;;;;;;;;;;;5073058;28;19950;-65
2022/08/03 05:52:33;;;;;;;;;;;;;;;;;;5072517;28;19935;-66
2022/08/03 05:55:00;;;;;;;;;;;;;;;;;;5072913;28;19925;-66
2022/08/03 05:57:26;;;;;;;;;;;;;;;;;;5073161;28;19964;-65
2022/08/03 05:59:53;;;;;;;;;;;;;;;;;;5072623;28;19931;-65
2022/08/03 06:02:19;;;;;;;;;;;;;;;;;;5072861;28;20393;-64
2022/08/03 06:04:47;;;;;;;;;;;;;;;;;;5073326;28;19924;-65
2022/08/03 06:07:14;;;;;;;;;;;;;;;;;;5073239;28;19972;-65
2022/08/03 06:09:41;;;;;;;;;;;;;;;;;;5073193;28;19978;-65
2022/08/03 06:12:08;;;;;;;;;;;;;;;;;;5073132;28;19975;-65
2022/08/03 06:14:35;;;;;;;;;;;;;;;;;;5073965;28;19931;-66
2022/08/03 06:17:01;;;;;;;;;;;;;;;;;;5073778;28;19924;-65
2022/08/03 06:19:28;;;;;;;;;;;;;;;;;;5073695;28;19947;-67
2022/08/03 06:21:57;;;;;;;;;;;;;;;;;;5072839;28;19925;-65
2022/08/03 06:24:24;;;;;;;;;;;;;;;;;;5072422;28;19978;-65
2022/08/03 06:26:50;;;;;;;;;;;;;;;;;;5072910;28;19925;-65
2022/08/03 06:29:17;;;;;;;;;;;;;;;;;;5073048;28;20420;-65
2022/08/03 06:31:44;;;;;;;;;;;;;;;;;;5072669;28;20352;-65
2022/08/03 06:34:11;;;;;;;;;;;;;;;;;;5072606;28;19925;-66
2022/08/03 06:36:37;;;;;;;;;;;;;;;;;;5072672;28;19931;-65
2022/08/03 06:39:06;;;;;;;;;;;;;;;;;;5072987;28;19932;-65
2022/08/03 06:41:33;;;;;;;;;;;;;;;;;;5072569;28;19982;-65
2022/08/03 06:43:59;;;;;;;;;;;;;;;;;;5072070;28;20015;-65
2022/08/03 06:46:26;;;;;;;;;;;;;;;;;;5072077;28;19925;-65
2022/08/03 06:48:53;;;;;;;;;;;;;;;;;;5072143;28;19929;-65
2022/08/03 06:51:20;;;;;;;;;;;;;;;;;;5071907;28;19972;-65
2022/08/03 06:53:46;;;;;;;;;;;;;;;;;;5072047;28;19925;-65
2022/08/03 06:56:15;;;;;;;;;;;;;;;;;;5071865;28;19932;-66
2022/08/03 06:58:41;;;;;;;;;;;;;;;;;;5071667;28;19924;-65
2022/08/03 07:01:08;;;;;;;;;;;;;;;;;;5071804;28;19928;-65
2022/08/03 07:03:35;;;;;;;;;;;;;;;;;;5070473;28;20297;-65
2022/08/03 07:06:01;;;;;;;;;;;;;;;;;;5067435;28;19924;-64
2022/08/03 07:08:28;;;;;;;;;;;;;;;;;;5068242;28;19929;-65
2022/08/03 07:10:55;;;;;;;;;;;;;;;;;;5070242;28;19928;-65
2022/08/03 07:13:23;;;;;;;;;;;;;;;;;;5070529;28;19932;-65
2022/08/03 07:15:49;;;;;;;;;;;;;;;;;;5071167;28;19924;-65
2022/08/03 07:18:16;;;;;;;;;;;;;;;;;;5070095;28;20373;-64
2022/08/03 07:20:42;;;;;;;;;;;;;;;;;;5053006;28;19925;-66
2022/08/03 07:23:09;;;;;;;;;;;;;;;;;;5069833;28;19924;-65
2022/08/03 07:25:36;;;;;;;;;;;;;;;;;;5070366;28;19978;-64
2022/08/03 07:28:03;;;;;;;;;;;;;;;;;;5070288;28;19932;-65
2022/08/03 07:30:31;;;;;;;;;;;;;;;;;;5070026;28;20306;-64
2022/08/03 07:32:57;;;;;;;;;;;;;;;;;;5070089;28;19925;-64
2022/08/03 07:35:25;;;;;;;;;;;;;;;;;;5070412;28;19929;-64
2022/08/03 07:37:51;;;;;;;;;;;;;;;;;;5070389;28;19928;-64
2022/08/03 07:40:18;;;;;;;;;;;;;;;;;;5071084;28;19959;-66
2022/08/03 07:42:45;;;;;;;;;;;;;;;;;;5070322;28;19948;-65
2022/08/03 07:45:12;;;;;;;;;;;;;;;;;;5070031;28;19932;-64
2022/08/03 07:47:40;;;;;;;;;;;;;;;;;;5069285;28;19928;-65
2022/08/03 07:50:07;;;;;;;;;;;;;;;;;;5068891;28;19925;-64
2022/08/03 07:52:50;;;;;;;;;;;;;;;;;;5069964;28;20389;-66
2022/08/03 07:55:18;;;;;;;;;;;;;;;;;;5070788;28;20439;-65
2022/08/03 07:57:44;;;;;;;;;;;;;;;;;;5070559;28;20546;-64
2022/08/03 08:00:13;;;;;;;;;;;;;;;;;;5069557;28;19924;-65
2022/08/03 08:02:42;;;;;;;;;;;;;;;;;;5070185;28;19932;-66
2022/08/03 08:05:09;;;;;;;;;;;;;;;;;;5071478;28;20019;-65
2022/08/03 08:07:36;;;;;;;;;;;;;;;;;;5074209;28;19924;-65
2022/08/03 08:10:04;;;;;;;;;;;;;;;;;;5073229;28;19924;-64
2022/08/03 08:12:31;;;;;;;;;;;;;;;;;;5091914;22;19955;-67
2022/08/03 08:14:57;;;;;;;;;;;;;;;;;;5091979;28;20014;-67
2022/08/03 08:17:24;;;;;;;;;;;;;;;;;;5095114;28;20384;-67
2022/08/03 08:19:52;;;;;;;;;;;;;;;;;;5098324;28;19928;-66
2022/08/03 08:22:19;;;;;;;;;;;;;;;;;;5113527;28;19923;-67
2022/08/03 08:24:47;;;;;;;;;;;;;;;;;;5093498;28;19950;-67
2022/08/03 08:27:14;;;;;;;;;;;;;;;;;;5092890;28;19943;-67
2022/08/03 08:29:41;;;;;;;;;;;;;;;;;;5089533;28;19936;-67
2022/08/03 08:32:07;;;;;;;;;;;;;;;;;;5098574;28;19931;-66
2022/08/03 08:34:34;;;;;;;;;;;;;;;;;;5091464;28;20273;-67
2022/08/03 08:37:02;;;;;;;;;;;;;;;;;;5091729;28;20015;-66
2022/08/03 08:39:29;;;;;;;;;;;;;;;;;;5092222;28;19924;-67
2022/08/03 08:41:55;;;;;;;;;;;;;;;;;;5093094;28;20338;-66
2022/08/03 08:44:22;;;;;;;;;;;;;;;;;;5092541;28;19924;-66
2022/08/03 08:46:50;;;;;;;;;;;;;;;;;;5091006;28;19953;-66
2022/08/03 08:49:18;;;;;;;;;;;;;;;;;;5092437;28;19924;-67
2022/08/03 08:51:47;;;;;;;;;;;;;;;;;;5092191;28;19928;-66
2022/08/03 08:54:15;;;;;;;;;;;;;;;;;;5092568;28;19979;-66
2022/08/03 08:56:43;;;;;;;;;;;;;;;;;;5091269;28;19931;-66
2022/08/03 08:59:10;;;;;;;;;;;;;;;;;;5092288;28;19928;-66
2022/08/03 09:01:36;;;;;;;;;;;;;;;;;;5092217;28;19924;-67
2022/08/03 09:04:05;;;;;;;;;;;;;;;;;;5087684;28;19925;-66
2022/08/03 09:06:32;;;;;;;;;;;;;;;;;;5091811;28;19931;-67
2022/08/03 09:08:59;;;;;;;;;;;;;;;;;;5091137;28;19924;-67
2022/08/03 09:11:27;;;;;;;;;;;;;;;;;;5093861;28;19924;-67
2022/08/03 09:13:53;;;;;;;;;;;;;;;;;;5085711;28;19924;-67
2022/08/03 09:16:21;;;;;;;;;;;;;;;;;;5095338;28;19924;-67
2022/08/03 09:18:48;;;;;;;;;;;;;;;;;;5097896;28;19924;-69
2022/08/03 09:21:16;;;;;;;;;;;;;;;;;;5096809;28;19932;-66
2022/08/03 09:23:46;;;;;;;;;;;;;;;;;;5100528;28;19928;-68
2022/08/03 09:26:16;;;;;;;;;;;;;;;;;;5094151;28;19981;-66
2022/08/03 09:28:44;;;;;;;;;;;;;;;;;;5090576;28;19932;-71
2022/08/03 09:31:11;;;;;;;;;;;;;;;;;;5099768;28;20403;-69
2022/08/03 09:33:46;;;;;;;;;;;;;;;;;;5092461;28;19924;-68
2022/08/03 09:36:33;;;;;;;;;;;;;;;;;;5092323;28;20368;-67
2022/08/03 09:39:02;;;;;;;;;;;;;;;;;;5095275;28;19924;-68
2022/08/03 09:41:29;;;;;;;;;;;;;;;;;;5099798;28;20300;-66
2022/08/03 09:43:57;;;;;;;;;;;;;;;;;;5091618;28;19932;-66
2022/08/03 09:46:23;;;;;;;;;;;;;;;;;;5092147;28;19925;-67
2022/08/03 09:48:50;;;;;;;;;;;;;;;;;;5091280;28;19924;-67
2022/08/03 09:51:18;;;;;;;;;;;;;;;;;;5099334;28;19924;-68
2022/08/03 09:53:45;;;;;;;;;;;;;;;;;;5111816;28;19934;-68
2022/08/03 09:56:12;;;;;;;;;;;;;;;;;;5101713;28;20280;-67
2022/08/03 09:58:44;;;;;;;;;;;;;;;;;;5088477;28;19924;-67
2022/08/03 10:01:12;;;;;;;;;;;;;;;;;;5097378;28;19924;-67
2022/08/03 10:03:40;;;;;;;;;;;;;;;;;;5091059;28;20242;-67
2022/08/03 10:06:15;;;;;;;;;;;;;;;;;;5084451;28;20488;-68
2022/08/03 10:08:41;;;;;;;;;;;;;;;;;;5076177;28;19928;-68
2022/08/03 10:11:08;;;;;;;;;;;;;;;;;;5069826;28;19939;-68
2022/08/03 10:13:36;;;;;;;;;;;;;;;;;;5087148;28;19935;-67
2022/08/03 10:16:03;;;;;;;;;;;;;;;;;;5092266;28;19932;-68
2022/08/03 10:18:31;;;;;;;;;;;;;;;;;;5091288;28;20460;-68
2022/08/03 10:21:00;;;;;;;;;;;;;;;;;;5096543;28;19928;-68
2022/08/03 10:23:27;;;;;;;;;;;;;;;;;;5080712;28;19924;-68
2022/08/03 10:25:58;;;;;;;;;;;;;;;;;;5089587;28;19924;-67
2022/08/03 10:28:24;;;;;;;;;;;;;;;;;;5090986;28;19964;-67
2022/08/03 10:30:52;;;;;;;;;;;;;;;;;;5092864;28;19928;-67
2022/08/03 10:33:20;;;;;;;;;;;;;;;;;;5091635;28;19925;-67
2022/08/03 10:35:51;;;;;;;;;;;;;;;;;;5101406;28;19931;-67
2022/08/03 10:38:19;;;;;;;;;;;;;;;;;;5108496;28;19923;-67
2022/08/03 10:40:46;;;;;;;;;;;;;;;;;;5098272;28;19924;-67
2022/08/03 10:43:21;;;;;;;;;;;;;;;;;;5091938;28;20264;-67
2022/08/03 10:45:48;;;;;;;;;;;;;;;;;;5104224;28;19924;-67
2022/08/03 10:48:15;;;;;;;;;;;;;;;;;;5111489;28;19928;-67
2022/08/03 10:50:43;;;;;;;;;;;;;;;;;;5100033;28;19924;-66
2022/08/03 10:53:11;;;;;;;;;;;;;;;;;;5102784;28;19924;-66
2022/08/03 10:58:42;;;;;;;;;;;;;;;;;;5090933;28;20057;-67
2022/08/03 11:01:09;;;;;;;;;;;;;;;;;;5090295;28;19924;-68
2022/08/03 11:03:57;;;;;;;;;;;;;;;;;;5101707;28;19950;-67
2022/08/03 11:06:26;;;;;;;;;;;;;;;;;;5109229;28;20456;-66
2022/08/03 11:09:15;;;;;;;;;;;;;;;;;;5090388;28;20024;-69
2022/08/03 11:11:42;;;;;;;;;;;;;;;;;;5088286;28;19931;-65
2022/08/03 11:14:10;;;;;;;;;;;;;;;;;;5090888;28;19924;-67
2022/08/03 11:16:38;;;;;;;;;;;;;;;;;;5092248;28;19924;-68
2022/08/03 11:19:06;;;;;;;;;;;;;;;;;;5091517;28;19931;-66
2022/08/03 11:21:56;;;;;;;;;;;;;;;;;;5091997;28;19924;-68
2022/08/03 11:24:42;;;;;;;;;;;;;;;;;;5092588;28;19924;-69
2022/08/03 11:27:18;;;;;;;;;;;;;;;;;;5093621;28;20331;-67
2022/08/03 11:29:55;;;;;;;;;;;;;;;;;;5093766;28;19943;-69
2022/08/03 11:32:40;;;;;;;;;;;;;;;;;;5098924;28;19924;-66
2022/08/03 11:35:07;;;;;;;;;;;;;;;;;;5092000;28;20597;-66
2022/08/03 11:37:35;;;;;;;;;;;;;;;;;;5091479;28;19928;-67
2022/08/03 11:40:02;;;;;;;;;;;;;;;;;;5093812;28;20293;-67
2022/08/03 11:42:44;;;;;;;;;;;;;;;;;;5097861;28;20391;-67
2022/08/03 11:45:11;;;;;;;;;;;;;;;;;;5098072;28;20198;-69
2022/08/03 11:47:41;;;;;;;;;;;;;;;;;;5094254;28;20338;-68
2022/08/03 11:50:08;;;;;;;;;;;;;;;;;;5094988;28;20008;-68
2022/08/03 11:52:37;;;;;;;;;;;;;;;;;;5094007;28;19928;-72
2022/08/03 11:55:08;;;;;;;;;;;;;;;;;;5093975;28;20022;-67
2022/08/03 11:57:35;;;;;;;;;;;;;;;;;;5094323;28;19989;-69
2022/08/03 12:00:02;;;;;;;;;;;;;;;;;;5094048;28;19924;-68
2022/08/03 12:02:29;;;;;;;;;;;;;;;;;;5093668;28;19924;-70
2022/08/03 12:04:57;;;;;;;;;;;;;;;;;;5094245;28;19924;-69
2022/08/03 12:07:26;;;;;;;;;;;;;;;;;;5113737;28;19930;-69
2022/08/03 12:10:08;;;;;;;;;;;;;;;;;;5114448;28;19923;-68
2022/08/03 12:12:34;;;;;;;;;;;;;;;;;;5104863;28;19932;-66
2022/08/03 12:15:02;;;;;;;;;;;;;;;;;;5093791;28;19924;-66
2022/08/03 12:17:32;;;;;;;;;;;;;;;;;;5093447;28;19930;-65
2022/08/03 12:19:59;;;;;;;;;;;;;;;;;;5108411;28;20338;-67
2022/08/03 12:22:31;;;;;;;;;;;;;;;;;;5102191;28;19928;-68
2022/08/03 12:24:57;;;;;;;;;;;;;;;;;;5093077;28;19947;-67
2022/08/03 12:27:28;;;;;;;;;;;;;;;;;;5095678;28;19935;-66
2022/08/03 12:29:55;;;;;;;;;;;;;;;;;;5092641;28;19932;-67
2022/08/03 12:32:22;;;;;;;;;;;;;;;;;;5100112;28;19931;-67
2022/08/03 12:34:50;;;;;;;;;;;;;;;;;;5099152;28;20341;-67
2022/08/03 12:37:18;;;;;;;;;;;;;;;;;;5095205;28;20299;-66
2022/08/03 12:39:49;;;;;;;;;;;;;;;;;;5112988;28;19923;-67
2022/08/03 12:42:16;;;;;;;;;;;;;;;;;;5113628;28;19928;-67
2022/08/03 12:44:44;;;;;;;;;;;;;;;;;;5113175;28;20301;-65
2022/08/03 12:47:14;;;;;;;;;;;;;;;;;;5113197;28;20012;-66
2022/08/03 12:49:47;;;;;;;;;;;;;;;;;;5113626;28;20010;-67
2022/08/03 12:52:14;;;;;;;;;;;;;;;;;;5112536;28;19934;-67
2022/08/03 12:54:42;;;;;;;;;;;;;;;;;;5112748;28;19985;-67
2022/08/03 12:57:10;;;;;;;;;;;;;;;;;;5113212;28;20386;-67
2022/08/03 12:59:41;;;;;;;;;;;;;;;;;;5112943;28;19930;-66
2022/08/03 13:02:15;;;;;;;;;;;;;;;;;;5092729;28;20011;-67
2022/08/03 13:04:42;;;;;;;;;;;;;;;;;;5092392;28;20010;-67
2022/08/03 13:07:10;;;;;;;;;;;;;;;;;;5092545;28;19931;-67
2022/08/03 13:09:41;;;;;;;;;;;;;;;;;;5092029;28;19931;-67
2022/08/03 13:12:08;;;;;;;;;;;;;;;;;;5091935;28;19928;-66
2022/08/03 13:14:35;;;;;;;;;;;;;;;;;;5092234;28;19935;-67
2022/08/03 13:17:02;;;;;;;;;;;;;;;;;;5091820;28;19955;-67
2022/08/03 13:19:31;;;;;;;;;;;;;;;;;;5091328;28;20418;-67
2022/08/03 13:21:57;;;;;;;;;;;;;;;;;;5092010;28;19928;-67
2022/08/03 13:24:24;;;;;;;;;;;;;;;;;;5092226;28;19924;-67
2022/08/03 13:26:51;;;;;;;;;;;;;;;;;;5092266;28;19928;-67
2022/08/03 13:29:17;;;;;;;;;;;;;;;;;;5091836;28;19974;-69
2022/08/03 13:31:44;;;;;;;;;;;;;;;;;;5091863;28;19970;-67
2022/08/03 13:34:11;;;;;;;;;;;;;;;;;;5091914;28;20305;-67
2022/08/03 13:36:39;;;;;;;;;;;;;;;;;;5091612;28;19931;-67
2022/08/03 13:39:05;;;;;;;;;;;;;;;;;;5091650;28;19924;-66
2022/08/03 13:41:32;;;;;;;;;;;;;;;;;;5091638;28;20377;-67
2022/08/03 13:43:58;;;;;;;;;;;;;;;;;;5091629;28;19932;-66
2022/08/03 13:46:25;;;;;;;;;;;;;;;;;;5090457;28;19924;-67
2022/08/03 13:48:52;;;;;;;;;;;;;;;;;;5091301;28;19978;-66
2022/08/03 13:51:18;;;;;;;;;;;;;;;;;;5091506;28;19924;-67
2022/08/03 13:53:46;;;;;;;;;;;;;;;;;;5091547;28;19924;-66
2022/08/03 13:56:13;;;;;;;;;;;;;;;;;;5091490;28;19924;-68
2022/08/03 13:58:39;;;;;;;;;;;;;;;;;;5091878;28;19931;-67
2022/08/03 14:01:06;;;;;;;;;;;;;;;;;;5091330;28;19945;-66
2022/08/03 14:03:33;;;;;;;;;;;;;;;;;;5090611;28;19939;-66
2022/08/03 14:05:59;;;;;;;;;;;;;;;;;;5091921;28;20363;-67
2022/08/03 14:08:26;;;;;;;;;;;;;;;;;;5091601;28;19931;-67
2022/08/03 14:10:54;;;;;;;;;;;;;;;;;;5090969;28;19947;-67
2022/08/03 14:15:57;;;;;;;;;;;;;;;;;;5089315;28;19924;-63
2022/08/03 14:18:23;;;;;;;;;;;;;;;;;;5091495;28;19927;-64
2022/08/03 14:20:50;;;;;;;;;;;;;;;;;;5091757;28;19924;-64
2022/08/03 14:23:17;;;;;;;;;;;;;;;;;;5091317;28;19969;-64
2022/08/03 14:25:43;;;;;;;;;;;;;;;;;;5091900;28;20383;-64
2022/08/03 14:28:12;;;;;;;;;;;;;;;;;;5090691;28;20273;-65
2022/08/03 14:30:38;;;;;;;;;;;;;;;;;;5091470;28;19924;-65
2022/08/03 14:33:05;;;;;;;;;;;;;;;;;;5091067;28;19930;-65
2022/08/03 14:35:31;;;;;;;;;;;;;;;;;;5091398;28;20020;-62
2022/08/03 14:37:58;;;;;;;;;;;;;;;;;;5091042;28;20015;-65
2022/08/03 14:40:25;;;;;;;;;;;;;;;;;;5090762;28;19924;-65
2022/08/03 14:42:52;;;;;;;;;;;;;;;;;;5090740;28;20342;-64
2022/08/03 14:45:20;;;;;;;;;;;;;;;;;;5090436;28;19924;-64
2022/08/03 14:47:46;;;;;;;;;;;;;;;;;;5090534;28;19943;-64
2022/08/03 14:50:13;;;;;;;;;;;;;;;;;;5090504;28;20404;-64
2022/08/03 14:52:39;;;;;;;;;;;;;;;;;;5090679;28;19928;-65
2022/08/03 14:55:06;;;;;;;;;;;;;;;;;;5090697;28;19932;-64
2022/08/03 14:57:33;;;;;;;;;;;;;;;;;;5091013;28;19930;-64
2022/08/03 14:59:59;;;;;;;;;;;;;;;;;;5090224;28;19924;-65
2022/08/03 15:02:29;;;;;;;;;;;;;;;;;;5090429;28;20296;-64
2022/08/03 15:04:55;;;;;;;;;;;;;;;;;;5090190;28;19931;-64
2022/08/03 15:07:22;;;;;;;;;;;;;;;;;;5090432;28;19928;-64
2022/08/03 15:09:48;;;;;;;;;;;;;;;;;;5090279;28;20274;-64
2022/08/03 15:12:15;;;;;;;;;;;;;;;;;;5090334;28;19931;-64
2022/08/03 15:14:41;;;;;;;;;;;;;;;;;;5093685;28;20377;-63
2022/08/03 15:17:08;;;;;;;;;;;;;;;;;;5094671;28;20334;-65
2022/08/03 15:19:36;;;;;;;;;;;;;;;;;;5094396;28;20163;-64
2022/08/03 15:22:03;;;;;;;;;;;;;;;;;;5094439;28;19967;-65
2022/08/03 15:24:29;;;;;;;;;;;;;;;;;;5094243;28;19924;-63
2022/08/03 15:26:56;;;;;;;;;;;;;;;;;;5094418;28;19974;-65
2022/08/03 15:29:22;;;;;;;;;;;;;;;;;;5094433;28;19932;-65
2022/08/03 15:31:49;;;;;;;;;;;;;;;;;;5094289;28;19924;-64
2022/08/03 15:34:16;;;;;;;;;;;;;;;;;;5094137;28;20281;-64
2022/08/03 15:36:44;;;;;;;;;;;;;;;;;;5094143;28;19927;-65
2022/08/03 15:39:10;;;;;;;;;;;;;;;;;;5094187;28;19989;-65
2022/08/03 15:41:37;;;;;;;;;;;;;;;;;;5094460;28;19951;-64
2022/08/03 15:44:04;;;;;;;;;;;;;;;;;;5093876;28;20446;-64
2022/08/03 15:46:31;;;;;;;;;;;;;;;;;;5094160;28;20027;-64
2022/08/03 15:48:57;;;;;;;;;;;;;;;;;;5094140;28;20304;-64
2022/08/03 15:51:24;;;;;;;;;;;;;;;;;;5094013;28;19927;-64
2022/08/03 15:53:52;;;;;;;;;;;;;;;;;;5094562;28;19924;-64
2022/08/03 15:56:18;;;;;;;;;;;;;;;;;;5093795;28;19924;-65
2022/08/03 15:58:45;;;;;;;;;;;;;;;;;;5094270;28;20313;-64
2022/08/03 16:01:12;;;;;;;;;;;;;;;;;;5092602;28;19943;-65
2022/08/03 16:03:39;;;;;;;;;;;;;;;;;;5093037;28;20388;-64
2022/08/03 16:06:06;;;;;;;;;;;;;;;;;;5093438;28;20407;-64
2022/08/03 16:08:33;;;;;;;;;;;;;;;;;;5093530;28;19958;-64
2022/08/03 16:11:01;;;;;;;;;;;;;;;;;;5092984;28;19924;-64
2022/08/03 16:13:28;;;;;;;;;;;;;;;;;;5093070;28;19975;-64
2022/08/03 16:15:54;;;;;;;;;;;;;;;;;;5093102;28;20027;-65
2022/08/03 16:18:21;;;;;;;;;;;;;;;;;;5093517;28;19927;-62
2022/08/03 16:20:48;;;;;;;;;;;;;;;;;;5093098;28;19928;-63
2022/08/03 16:23:17;;;;;;;;;;;;;;;;;;5093255;28;19977;-64
2022/08/03 16:25:44;;;;;;;;;;;;;;;;;;5092776;28;19924;-63
2022/08/03 16:28:12;;;;;;;;;;;;;;;;;;5093568;28;19924;-63
2022/08/03 16:30:39;;;;;;;;;;;;;;;;;;5093328;28;19931;-64
2022/08/03 16:33:06;;;;;;;;;;;;;;;;;;5093882;28;20379;-64
2022/08/03 16:35:32;;;;;;;;;;;;;;;;;;5093962;28;19928;-64
2022/08/03 16:37:59;;;;;;;;;;;;;;;;;;5093475;28;19924;-64
2022/08/03 16:40:26;;;;;;;;;;;;;;;;;;5092842;28;19924;-64
2022/08/03 16:42:52;;;;;;;;;;;;;;;;;;5092264;28;20042;-63
2022/08/03 16:45:22;;;;;;;;;;;;;;;;;;5074077;28;23418;-64
2022/08/03 16:47:49;;;;;;;;;;;;;;;;;;5093064;28;19924;-64
2022/08/03 16:50:15;;;;;;;;;;;;;;;;;;5093000;28;19993;-64
2022/08/03 16:52:42;;;;;;;;;;;;;;;;;;5093291;28;20153;-64
2022/08/03 16:55:12;;;;;;;;;;;;;;;;;;5092930;28;19931;-63
2022/08/03 16:57:39;;;;;;;;;;;;;;;;;;5093460;28;20372;-63
2022/08/03 17:00:07;;;;;;;;;;;;;;;;;;5092108;28;19931;-64
2022/08/03 17:02:35;;;;;;;;;;;;;;;;;;5092685;28;19992;-63